sensor_id;sensor_type;location;lat;lon;timestamp;P1;durP1;ratioP1;P2;durP2;ratioP2
20146;SDS011;10234;50.856;15.716;2022-12-29T00:01:25;3.30;;;1.70;;
20146;SDS011;10234;50.856;15.716;2022-12-29T00:03:52;2.80;;;1.60;;
20146;SDS011;10234;50.856;15.716;2022-12-29T00:06:20;2.40;;;2.00;;
20146;SDS011;10234;50.856;15.716;2022-12-29T00:08:48;2.15;;;1.90;;
20146;SDS011;10234;50.856;15.716;2022-12-29T00:11:16;2.40;;;1.75;;
20146;SDS011;10234;50.856;15.716;2022-12-29T00:13:44;2.08;;;1.60;;
20146;SDS011;10234;50.856;15.716;2022-12-29T00:16:43;2.35;;;1.92;;
20146;SDS011;10234;50.856;15.716;2022-12-29T00:19:11;2.47;;;1.85;;
20146;SDS011;10234;50.856;15.716;2022-12-29T00:21:52;3.83;;;2.22;;
20146;SDS011;10234;50.856;15.716;2022-12-29T00:24:38;2.90;;;1.92;;
20146;SDS011;10234;50.856;15.716;2022-12-29T00:27:23;3.33;;;1.80;;
20146;SDS011;10234;50.856;15.716;2022-12-29T00:30:08;4.63;;;1.80;;
20146;SDS011;10234;50.856;15.716;2022-12-29T00:32:53;2.08;;;1.85;;
20146;SDS011;10234;50.856;15.716;2022-12-29T00:35:38;2.92;;;1.50;;
20146;SDS011;10234;50.856;15.716;2022-12-29T00:38:08;2.15;;;1.95;;
20146;SDS011;10234;50.856;15.716;2022-12-29T00:40:57;2.03;;;1.73;;
20146;SDS011;10234;50.856;15.716;2022-12-29T00:43:41;3.45;;;1.67;;
20146;SDS011;10234;50.856;15.716;2022-12-29T00:46:26;2.22;;;1.50;;
20146;SDS011;10234;50.856;15.716;2022-12-29T00:48:53;1.95;;;1.70;;
20146;SDS011;10234;50.856;15.716;2022-12-29T00:51:38;2.00;;;1.80;;
20146;SDS011;10234;50.856;15.716;2022-12-29T00:54:05;2.83;;;2.22;;
20146;SDS011;10234;50.856;15.716;2022-12-29T00:56:35;2.28;;;1.65;;
20146;SDS011;10234;50.856;15.716;2022-12-29T00:59:02;2.58;;;1.77;;
20146;SDS011;10234;50.856;15.716;2022-12-29T01:01:30;2.65;;;2.03;;
20146;SDS011;10234;50.856;15.716;2022-12-29T01:03:57;4.80;;;2.20;;
20146;SDS011;10234;50.856;15.716;2022-12-29T01:06:23;3.33;;;2.17;;
20146;SDS011;10234;50.856;15.716;2022-12-29T01:08:50;4.57;;;1.90;;
20146;SDS011;10234;50.856;15.716;2022-12-29T01:11:31;2.33;;;1.67;;
20146;SDS011;10234;50.856;15.716;2022-12-29T01:14:00;3.55;;;1.90;;
20146;SDS011;10234;50.856;15.716;2022-12-29T01:16:26;2.92;;;1.90;;
20146;SDS011;10234;50.856;15.716;2022-12-29T01:18:53;2.38;;;1.70;;
20146;SDS011;10234;50.856;15.716;2022-12-29T01:21:20;2.70;;;1.60;;
20146;SDS011;10234;50.856;15.716;2022-12-29T01:23:47;2.15;;;1.95;;
20146;SDS011;10234;50.856;15.716;2022-12-29T01:26:16;2.17;;;1.65;;
20146;SDS011;10234;50.856;15.716;2022-12-29T01:28:44;2.55;;;2.10;;
20146;SDS011;10234;50.856;15.716;2022-12-29T01:31:13;2.80;;;2.00;;
20146;SDS011;10234;50.856;15.716;2022-12-29T01:33:41;1.83;;;1.45;;
20146;SDS011;10234;50.856;15.716;2022-12-29T01:36:09;2.35;;;1.67;;
20146;SDS011;10234;50.856;15.716;2022-12-29T01:38:37;1.52;;;1.42;;
20146;SDS011;10234;50.856;15.716;2022-12-29T01:41:05;1.77;;;1.58;;
20146;SDS011;10234;50.856;15.716;2022-12-29T01:43:39;2.53;;;1.63;;
20146;SDS011;10234;50.856;15.716;2022-12-29T01:46:08;1.90;;;1.70;;
20146;SDS011;10234;50.856;15.716;2022-12-29T01:48:45;4.93;;;1.40;;
20146;SDS011;10234;50.856;15.716;2022-12-29T01:51:13;2.17;;;1.17;;
20146;SDS011;10234;50.856;15.716;2022-12-29T01:53:40;2.15;;;1.70;;
20146;SDS011;10234;50.856;15.716;2022-12-29T01:56:09;1.92;;;1.83;;
20146;SDS011;10234;50.856;15.716;2022-12-29T01:58:41;2.40;;;1.40;;
20146;SDS011;10234;50.856;15.716;2022-12-29T02:01:10;1.73;;;1.50;;
20146;SDS011;10234;50.856;15.716;2022-12-29T02:03:39;1.35;;;1.23;;
20146;SDS011;10234;50.856;15.716;2022-12-29T02:06:07;2.65;;;1.20;;
20146;SDS011;10234;50.856;15.716;2022-12-29T02:08:38;1.55;;;1.42;;
20146;SDS011;10234;50.856;15.716;2022-12-29T02:11:06;1.70;;;1.27;;
20146;SDS011;10234;50.856;15.716;2022-12-29T02:13:37;2.30;;;1.80;;
20146;SDS011;10234;50.856;15.716;2022-12-29T02:16:09;3.33;;;2.00;;
20146;SDS011;10234;50.856;15.716;2022-12-29T02:18:51;1.92;;;1.50;;
20146;SDS011;10234;50.856;15.716;2022-12-29T02:21:44;2.25;;;1.60;;
20146;SDS011;10234;50.856;15.716;2022-12-29T02:24:44;5.32;;;2.00;;
20146;SDS011;10234;50.856;15.716;2022-12-29T02:27:46;3.22;;;1.60;;
20146;SDS011;10234;50.856;15.716;2022-12-29T02:30:35;2.55;;;1.10;;
20146;SDS011;10234;50.856;15.716;2022-12-29T02:33:22;4.32;;;1.48;;
20146;SDS011;10234;50.856;15.716;2022-12-29T02:35:58;1.90;;;1.60;;
20146;SDS011;10234;50.856;15.716;2022-12-29T02:38:37;1.88;;;1.60;;
20146;SDS011;10234;50.856;15.716;2022-12-29T02:41:17;1.83;;;1.58;;
20146;SDS011;10234;50.856;15.716;2022-12-29T02:43:50;2.75;;;1.73;;
20146;SDS011;10234;50.856;15.716;2022-12-29T02:46:26;2.03;;;1.52;;
20146;SDS011;10234;50.856;15.716;2022-12-29T02:49:01;1.40;;;1.20;;
20146;SDS011;10234;50.856;15.716;2022-12-29T02:51:33;2.13;;;1.77;;
20146;SDS011;10234;50.856;15.716;2022-12-29T02:54:03;1.48;;;1.33;;
20146;SDS011;10234;50.856;15.716;2022-12-29T02:56:48;2.47;;;1.73;;
20146;SDS011;10234;50.856;15.716;2022-12-29T02:59:15;1.70;;;1.50;;
20146;SDS011;10234;50.856;15.716;2022-12-29T03:01:53;2.58;;;1.75;;
20146;SDS011;10234;50.856;15.716;2022-12-29T03:04:54;2.88;;;1.60;;
20146;SDS011;10234;50.856;15.716;2022-12-29T03:07:39;2.05;;;1.70;;
20146;SDS011;10234;50.856;15.716;2022-12-29T03:10:14;3.15;;;1.80;;
20146;SDS011;10234;50.856;15.716;2022-12-29T03:12:53;2.30;;;1.80;;
20146;SDS011;10234;50.856;15.716;2022-12-29T03:15:43;3.22;;;1.92;;
20146;SDS011;10234;50.856;15.716;2022-12-29T03:18:36;2.08;;;1.88;;
20146;SDS011;10234;50.856;15.716;2022-12-29T03:21:08;1.45;;;1.35;;
20146;SDS011;10234;50.856;15.716;2022-12-29T03:23:42;2.42;;;1.83;;
20146;SDS011;10234;50.856;15.716;2022-12-29T03:26:14;2.22;;;2.00;;
20146;SDS011;10234;50.856;15.716;2022-12-29T03:28:44;2.92;;;1.90;;
20146;SDS011;10234;50.856;15.716;2022-12-29T03:31:17;1.95;;;1.75;;
20146;SDS011;10234;50.856;15.716;2022-12-29T03:33:47;2.75;;;1.70;;
20146;SDS011;10234;50.856;15.716;2022-12-29T03:36:17;2.33;;;2.10;;
20146;SDS011;10234;50.856;15.716;2022-12-29T03:38:50;4.28;;;2.33;;
20146;SDS011;10234;50.856;15.716;2022-12-29T03:41:25;3.03;;;2.25;;
20146;SDS011;10234;50.856;15.716;2022-12-29T03:43:56;3.78;;;1.95;;
20146;SDS011;10234;50.856;15.716;2022-12-29T03:46:23;3.22;;;1.83;;
20146;SDS011;10234;50.856;15.716;2022-12-29T03:48:51;2.45;;;2.00;;
20146;SDS011;10234;50.856;15.716;2022-12-29T03:51:18;2.90;;;2.05;;
20146;SDS011;10234;50.856;15.716;2022-12-29T03:53:45;3.55;;;1.90;;
20146;SDS011;10234;50.856;15.716;2022-12-29T03:56:12;3.10;;;2.10;;
20146;SDS011;10234;50.856;15.716;2022-12-29T03:58:39;2.75;;;2.00;;
20146;SDS011;10234;50.856;15.716;2022-12-29T04:01:06;2.10;;;1.90;;
20146;SDS011;10234;50.856;15.716;2022-12-29T04:03:33;2.67;;;2.17;;
20146;SDS011;10234;50.856;15.716;2022-12-29T04:06:01;3.90;;;2.05;;
20146;SDS011;10234;50.856;15.716;2022-12-29T04:08:28;3.85;;;1.90;;
20146;SDS011;10234;50.856;15.716;2022-12-29T04:10:55;2.03;;;1.83;;
20146;SDS011;10234;50.856;15.716;2022-12-29T04:13:22;2.10;;;1.90;;
20146;SDS011;10234;50.856;15.716;2022-12-29T04:15:49;2.05;;;1.80;;
20146;SDS011;10234;50.856;15.716;2022-12-29T04:18:16;4.05;;;1.95;;
20146;SDS011;10234;50.856;15.716;2022-12-29T04:20:44;1.98;;;1.88;;
20146;SDS011;10234;50.856;15.716;2022-12-29T04:23:27;4.03;;;1.67;;
20146;SDS011;10234;50.856;15.716;2022-12-29T04:25:54;1.90;;;1.80;;
20146;SDS011;10234;50.856;15.716;2022-12-29T04:28:21;1.58;;;1.45;;
20146;SDS011;10234;50.856;15.716;2022-12-29T04:30:48;2.33;;;1.88;;
20146;SDS011;10234;50.856;15.716;2022-12-29T04:33:15;1.85;;;1.70;;
20146;SDS011;10234;50.856;15.716;2022-12-29T04:35:43;1.83;;;1.67;;
20146;SDS011;10234;50.856;15.716;2022-12-29T04:38:10;1.35;;;1.25;;
20146;SDS011;10234;50.856;15.716;2022-12-29T04:40:39;1.95;;;1.40;;
20146;SDS011;10234;50.856;15.716;2022-12-29T04:43:07;2.75;;;2.03;;
20146;SDS011;10234;50.856;15.716;2022-12-29T04:45:34;2.92;;;1.73;;
20146;SDS011;10234;50.856;15.716;2022-12-29T04:48:01;1.77;;;1.63;;
20146;SDS011;10234;50.856;15.716;2022-12-29T04:50:28;3.65;;;1.88;;
20146;SDS011;10234;50.856;15.716;2022-12-29T04:52:55;1.90;;;1.63;;
20146;SDS011;10234;50.856;15.716;2022-12-29T04:55:22;1.70;;;1.40;;
20146;SDS011;10234;50.856;15.716;2022-12-29T04:57:51;2.70;;;1.70;;
20146;SDS011;10234;50.856;15.716;2022-12-29T05:00:18;1.83;;;1.58;;
20146;SDS011;10234;50.856;15.716;2022-12-29T05:02:45;3.05;;;1.77;;
20146;SDS011;10234;50.856;15.716;2022-12-29T05:05:12;1.70;;;1.58;;
20146;SDS011;10234;50.856;15.716;2022-12-29T05:07:39;1.77;;;1.63;;
20146;SDS011;10234;50.856;15.716;2022-12-29T05:10:06;1.80;;;1.65;;
20146;SDS011;10234;50.856;15.716;2022-12-29T05:12:34;2.40;;;1.60;;
20146;SDS011;10234;50.856;15.716;2022-12-29T05:15:03;1.52;;;1.38;;
20146;SDS011;10234;50.856;15.716;2022-12-29T05:17:31;1.77;;;1.30;;
20146;SDS011;10234;50.856;15.716;2022-12-29T05:19:58;1.42;;;1.25;;
20146;SDS011;10234;50.856;15.716;2022-12-29T05:22:25;1.42;;;1.30;;
20146;SDS011;10234;50.856;15.716;2022-12-29T05:24:52;1.95;;;1.65;;
20146;SDS011;10234;50.856;15.716;2022-12-29T05:27:19;1.92;;;1.20;;
20146;SDS011;10234;50.856;15.716;2022-12-29T05:29:46;1.95;;;1.40;;
20146;SDS011;10234;50.856;15.716;2022-12-29T05:32:15;2.40;;;1.55;;
20146;SDS011;10234;50.856;15.716;2022-12-29T05:34:42;1.60;;;1.35;;
20146;SDS011;10234;50.856;15.716;2022-12-29T05:37:09;2.83;;;1.40;;
20146;SDS011;10234;50.856;15.716;2022-12-29T05:39:35;2.50;;;1.40;;
20146;SDS011;10234;50.856;15.716;2022-12-29T05:42:02;2.13;;;1.27;;
20146;SDS011;10234;50.856;15.716;2022-12-29T05:44:29;2.15;;;1.17;;
20146;SDS011;10234;50.856;15.716;2022-12-29T05:46:56;2.85;;;1.75;;
20146;SDS011;10234;50.856;15.716;2022-12-29T05:49:24;1.67;;;1.30;;
20146;SDS011;10234;50.856;15.716;2022-12-29T05:51:51;1.92;;;1.40;;
20146;SDS011;10234;50.856;15.716;2022-12-29T05:54:18;1.83;;;1.30;;
20146;SDS011;10234;50.856;15.716;2022-12-29T05:56:45;1.35;;;1.20;;
20146;SDS011;10234;50.856;15.716;2022-12-29T05:59:12;2.67;;;1.23;;
20146;SDS011;10234;50.856;15.716;2022-12-29T06:01:39;4.38;;;1.58;;
20146;SDS011;10234;50.856;15.716;2022-12-29T06:04:07;1.60;;;1.25;;
20146;SDS011;10234;50.856;15.716;2022-12-29T06:06:35;1.92;;;1.50;;
20146;SDS011;10234;50.856;15.716;2022-12-29T06:09:02;1.77;;;1.30;;
20146;SDS011;10234;50.856;15.716;2022-12-29T06:11:29;1.20;;;1.10;;
20146;SDS011;10234;50.856;15.716;2022-12-29T06:13:56;1.85;;;1.10;;
20146;SDS011;10234;50.856;15.716;2022-12-29T06:16:22;2.70;;;1.65;;
20146;SDS011;10234;50.856;15.716;2022-12-29T06:18:49;2.13;;;1.25;;
20146;SDS011;10234;50.856;15.716;2022-12-29T06:21:17;1.33;;;1.23;;
20146;SDS011;10234;50.856;15.716;2022-12-29T06:23:45;1.83;;;1.40;;
20146;SDS011;10234;50.856;15.716;2022-12-29T06:26:12;1.65;;;1.30;;
20146;SDS011;10234;50.856;15.716;2022-12-29T06:28:39;1.52;;;1.38;;
20146;SDS011;10234;50.856;15.716;2022-12-29T06:31:08;1.92;;;1.30;;
20146;SDS011;10234;50.856;15.716;2022-12-29T06:33:35;1.40;;;1.30;;
20146;SDS011;10234;50.856;15.716;2022-12-29T06:36:03;1.40;;;1.30;;
20146;SDS011;10234;50.856;15.716;2022-12-29T06:38:30;1.88;;;1.30;;
20146;SDS011;10234;50.856;15.716;2022-12-29T06:40:58;2.05;;;1.50;;
20146;SDS011;10234;50.856;15.716;2022-12-29T06:43:24;1.52;;;1.42;;
20146;SDS011;10234;50.856;15.716;2022-12-29T06:45:51;1.40;;;1.30;;
20146;SDS011;10234;50.856;15.716;2022-12-29T06:48:18;1.40;;;1.30;;
20146;SDS011;10234;50.856;15.716;2022-12-29T06:50:45;3.00;;;1.55;;
20146;SDS011;10234;50.856;15.716;2022-12-29T06:53:12;1.63;;;1.52;;
20146;SDS011;10234;50.856;15.716;2022-12-29T06:55:40;1.55;;;1.40;;
20146;SDS011;10234;50.856;15.716;2022-12-29T06:58:09;1.40;;;1.30;;
20146;SDS011;10234;50.856;15.716;2022-12-29T07:00:36;1.98;;;1.75;;
20146;SDS011;10234;50.856;15.716;2022-12-29T07:03:03;1.90;;;1.70;;
20146;SDS011;10234;50.856;15.716;2022-12-29T07:05:31;1.48;;;1.38;;
20146;SDS011;10234;50.856;15.716;2022-12-29T07:07:58;2.28;;;1.30;;
20146;SDS011;10234;50.856;15.716;2022-12-29T07:10:25;3.63;;;1.40;;
20146;SDS011;10234;50.856;15.716;2022-12-29T07:12:53;2.85;;;1.48;;
20146;SDS011;10234;50.856;15.716;2022-12-29T07:15:21;1.80;;;1.17;;
20146;SDS011;10234;50.856;15.716;2022-12-29T07:17:48;2.67;;;1.40;;
20146;SDS011;10234;50.856;15.716;2022-12-29T07:20:15;1.88;;;1.40;;
20146;SDS011;10234;50.856;15.716;2022-12-29T07:22:42;1.40;;;1.27;;
20146;SDS011;10234;50.856;15.716;2022-12-29T07:25:09;1.50;;;1.40;;
20146;SDS011;10234;50.856;15.716;2022-12-29T07:27:36;1.45;;;1.30;;
20146;SDS011;10234;50.856;15.716;2022-12-29T07:30:04;2.15;;;1.83;;
20146;SDS011;10234;50.856;15.716;2022-12-29T07:32:33;4.78;;;1.10;;
20146;SDS011;10234;50.856;15.716;2022-12-29T07:35:00;2.80;;;1.30;;
20146;SDS011;10234;50.856;15.716;2022-12-29T07:37:28;2.35;;;1.30;;
20146;SDS011;10234;50.856;15.716;2022-12-29T07:39:55;1.67;;;1.40;;
20146;SDS011;10234;50.856;15.716;2022-12-29T07:42:22;1.35;;;1.23;;
20146;SDS011;10234;50.856;15.716;2022-12-29T07:44:49;2.08;;;1.10;;
20146;SDS011;10234;50.856;15.716;2022-12-29T07:47:16;3.28;;;1.38;;
20146;SDS011;10234;50.856;15.716;2022-12-29T07:49:44;2.97;;;1.38;;
20146;SDS011;10234;50.856;15.716;2022-12-29T07:52:11;1.45;;;1.20;;
20146;SDS011;10234;50.856;15.716;2022-12-29T07:54:38;1.67;;;1.10;;
20146;SDS011;10234;50.856;15.716;2022-12-29T07:57:06;2.17;;;1.52;;
20146;SDS011;10234;50.856;15.716;2022-12-29T07:59:32;1.38;;;1.15;;
20146;SDS011;10234;50.856;15.716;2022-12-29T08:02:00;1.33;;;1.23;;
20146;SDS011;10234;50.856;15.716;2022-12-29T08:04:27;1.98;;;1.50;;
20146;SDS011;10234;50.856;15.716;2022-12-29T08:06:55;1.17;;;1.00;;
20146;SDS011;10234;50.856;15.716;2022-12-29T08:09:22;1.70;;;1.45;;
20146;SDS011;10234;50.856;15.716;2022-12-29T08:11:49;3.33;;;1.40;;
20146;SDS011;10234;50.856;15.716;2022-12-29T08:14:16;1.38;;;1.30;;
20146;SDS011;10234;50.856;15.716;2022-12-29T08:16:44;2.78;;;0.95;;
20146;SDS011;10234;50.856;15.716;2022-12-29T08:19:11;1.65;;;1.27;;
20146;SDS011;10234;50.856;15.716;2022-12-29T08:21:38;2.42;;;1.25;;
20146;SDS011;10234;50.856;15.716;2022-12-29T08:24:07;2.72;;;1.13;;
20146;SDS011;10234;50.856;15.716;2022-12-29T08:26:34;1.20;;;1.10;;
20146;SDS011;10234;50.856;15.716;2022-12-29T08:29:03;3.30;;;1.50;;
20146;SDS011;10234;50.856;15.716;2022-12-29T08:31:30;2.17;;;1.10;;
20146;SDS011;10234;50.856;15.716;2022-12-29T08:33:57;2.40;;;1.17;;
20146;SDS011;10234;50.856;15.716;2022-12-29T08:36:29;1.20;;;1.10;;
20146;SDS011;10234;50.856;15.716;2022-12-29T08:38:56;1.52;;;1.05;;
20146;SDS011;10234;50.856;15.716;2022-12-29T08:41:25;1.98;;;1.20;;
20146;SDS011;10234;50.856;15.716;2022-12-29T08:43:51;2.08;;;1.10;;
20146;SDS011;10234;50.856;15.716;2022-12-29T08:46:18;2.20;;;1.33;;
20146;SDS011;10234;50.856;15.716;2022-12-29T08:48:49;1.95;;;1.10;;
20146;SDS011;10234;50.856;15.716;2022-12-29T08:51:15;2.03;;;1.15;;
20146;SDS011;10234;50.856;15.716;2022-12-29T08:53:43;1.60;;;1.10;;
20146;SDS011;10234;50.856;15.716;2022-12-29T08:56:10;1.10;;;1.00;;
20146;SDS011;10234;50.856;15.716;2022-12-29T08:58:38;2.25;;;1.17;;
20146;SDS011;10234;50.856;15.716;2022-12-29T09:01:05;3.15;;;1.30;;
20146;SDS011;10234;50.856;15.716;2022-12-29T09:03:33;1.92;;;1.50;;
20146;SDS011;10234;50.856;15.716;2022-12-29T09:06:00;2.45;;;1.20;;
20146;SDS011;10234;50.856;15.716;2022-12-29T09:08:27;1.40;;;1.30;;
20146;SDS011;10234;50.856;15.716;2022-12-29T09:10:54;2.95;;;1.00;;
20146;SDS011;10234;50.856;15.716;2022-12-29T09:13:21;6.20;;;2.45;;
20146;SDS011;10234;50.856;15.716;2022-12-29T09:15:55;1.83;;;1.08;;
20146;SDS011;10234;50.856;15.716;2022-12-29T09:18:26;1.98;;;1.30;;
20146;SDS011;10234;50.856;15.716;2022-12-29T09:20:55;2.40;;;1.27;;
20146;SDS011;10234;50.856;15.716;2022-12-29T09:23:23;1.27;;;1.17;;
20146;SDS011;10234;50.856;15.716;2022-12-29T09:25:50;1.90;;;1.35;;
20146;SDS011;10234;50.856;15.716;2022-12-29T09:28:17;1.98;;;1.48;;
20146;SDS011;10234;50.856;15.716;2022-12-29T09:30:44;1.95;;;1.50;;
20146;SDS011;10234;50.856;15.716;2022-12-29T09:33:13;1.95;;;0.90;;
20146;SDS011;10234;50.856;15.716;2022-12-29T09:35:41;1.40;;;1.30;;
20146;SDS011;10234;50.856;15.716;2022-12-29T09:38:09;2.25;;;1.30;;
20146;SDS011;10234;50.856;15.716;2022-12-29T09:40:36;1.08;;;0.98;;
20146;SDS011;10234;50.856;15.716;2022-12-29T09:46:23;2.47;;;1.05;;
20146;SDS011;10234;50.856;15.716;2022-12-29T09:48:53;1.30;;;1.10;;
20146;SDS011;10234;50.856;15.716;2022-12-29T09:51:29;1.50;;;1.05;;
20146;SDS011;10234;50.856;15.716;2022-12-29T09:54:00;1.50;;;1.40;;
20146;SDS011;10234;50.856;15.716;2022-12-29T09:56:30;2.13;;;1.20;;
20146;SDS011;10234;50.856;15.716;2022-12-29T09:58:58;1.45;;;1.35;;
20146;SDS011;10234;50.856;15.716;2022-12-29T10:01:29;2.88;;;1.70;;
20146;SDS011;10234;50.856;15.716;2022-12-29T10:04:00;1.98;;;1.73;;
20146;SDS011;10234;50.856;15.716;2022-12-29T10:06:32;1.25;;;1.15;;
20146;SDS011;10234;50.856;15.716;2022-12-29T10:09:02;2.10;;;1.20;;
20146;SDS011;10234;50.856;15.716;2022-12-29T10:11:44;1.23;;;1.10;;
20146;SDS011;10234;50.856;15.716;2022-12-29T10:14:31;1.95;;;1.40;;
20146;SDS011;10234;50.856;15.716;2022-12-29T10:17:11;2.08;;;1.42;;
20146;SDS011;10234;50.856;15.716;2022-12-29T10:19:57;1.38;;;1.27;;
20146;SDS011;10234;50.856;15.716;2022-12-29T10:22:38;1.42;;;1.10;;
20146;SDS011;10234;50.856;15.716;2022-12-29T10:25:15;1.30;;;1.10;;
20146;SDS011;10234;50.856;15.716;2022-12-29T10:27:45;1.38;;;1.25;;
20146;SDS011;10234;50.856;15.716;2022-12-29T10:30:14;2.63;;;1.15;;
20146;SDS011;10234;50.856;15.716;2022-12-29T10:32:43;1.35;;;1.25;;
20146;SDS011;10234;50.856;15.716;2022-12-29T10:35:16;2.10;;;1.30;;
20146;SDS011;10234;50.856;15.716;2022-12-29T10:37:48;2.63;;;1.40;;
20146;SDS011;10234;50.856;15.716;2022-12-29T10:40:22;1.55;;;1.45;;
20146;SDS011;10234;50.856;15.716;2022-12-29T10:42:52;1.92;;;1.55;;
20146;SDS011;10234;50.856;15.716;2022-12-29T10:45:20;1.42;;;1.20;;
20146;SDS011;10234;50.856;15.716;2022-12-29T10:47:51;1.77;;;1.38;;
20146;SDS011;10234;50.856;15.716;2022-12-29T10:50:22;2.13;;;1.58;;
20146;SDS011;10234;50.856;15.716;2022-12-29T10:52:49;1.65;;;1.08;;
20146;SDS011;10234;50.856;15.716;2022-12-29T10:55:17;1.48;;;1.38;;
20146;SDS011;10234;50.856;15.716;2022-12-29T10:57:47;1.73;;;1.50;;
20146;SDS011;10234;50.856;15.716;2022-12-29T11:00:15;1.73;;;1.35;;
20146;SDS011;10234;50.856;15.716;2022-12-29T11:03:04;2.90;;;1.90;;
20146;SDS011;10234;50.856;15.716;2022-12-29T11:05:50;1.63;;;1.50;;
20146;SDS011;10234;50.856;15.716;2022-12-29T11:08:22;1.90;;;1.40;;
20146;SDS011;10234;50.856;15.716;2022-12-29T11:10:57;2.20;;;1.60;;
20146;SDS011;10234;50.856;15.716;2022-12-29T11:13:27;2.45;;;1.60;;
20146;SDS011;10234;50.856;15.716;2022-12-29T11:15:55;1.65;;;1.35;;
20146;SDS011;10234;50.856;15.716;2022-12-29T11:18:22;1.65;;;1.55;;
20146;SDS011;10234;50.856;15.716;2022-12-29T11:20:53;1.75;;;1.58;;
20146;SDS011;10234;50.856;15.716;2022-12-29T11:23:25;3.35;;;1.60;;
20146;SDS011;10234;50.856;15.716;2022-12-29T11:28:47;2.10;;;1.50;;
20146;SDS011;10234;50.856;15.716;2022-12-29T11:31:47;2.13;;;1.52;;
20146;SDS011;10234;50.856;15.716;2022-12-29T11:34:18;2.55;;;1.98;;
20146;SDS011;10234;50.856;15.716;2022-12-29T11:36:48;3.05;;;2.30;;
20146;SDS011;10234;50.856;15.716;2022-12-29T11:39:30;3.17;;;1.92;;
20146;SDS011;10234;50.856;15.716;2022-12-29T11:42:02;3.08;;;1.52;;
20146;SDS011;10234;50.856;15.716;2022-12-29T11:44:35;1.67;;;1.52;;
20146;SDS011;10234;50.856;15.716;2022-12-29T11:47:07;2.00;;;1.70;;
20146;SDS011;10234;50.856;15.716;2022-12-29T11:49:37;1.92;;;1.60;;
20146;SDS011;10234;50.856;15.716;2022-12-29T11:52:06;1.80;;;1.40;;
20146;SDS011;10234;50.856;15.716;2022-12-29T11:54:34;1.55;;;1.30;;
20146;SDS011;10234;50.856;15.716;2022-12-29T11:57:08;1.95;;;1.58;;
20146;SDS011;10234;50.856;15.716;2022-12-29T11:59:42;1.65;;;1.40;;
20146;SDS011;10234;50.856;15.716;2022-12-29T12:02:20;1.95;;;1.30;;
20146;SDS011;10234;50.856;15.716;2022-12-29T12:04:58;2.63;;;1.60;;
20146;SDS011;10234;50.856;15.716;2022-12-29T12:07:34;1.90;;;1.30;;
20146;SDS011;10234;50.856;15.716;2022-12-29T12:10:06;2.28;;;1.33;;
20146;SDS011;10234;50.856;15.716;2022-12-29T12:12:51;2.08;;;1.70;;
20146;SDS011;10234;50.856;15.716;2022-12-29T12:15:22;1.48;;;1.38;;
20146;SDS011;10234;50.856;15.716;2022-12-29T12:17:54;1.40;;;1.10;;
20146;SDS011;10234;50.856;15.716;2022-12-29T12:20:28;1.67;;;1.13;;
20146;SDS011;10234;50.856;15.716;2022-12-29T12:23:10;2.10;;;1.45;;
20146;SDS011;10234;50.856;15.716;2022-12-29T12:25:48;1.25;;;1.08;;
20146;SDS011;10234;50.856;15.716;2022-12-29T12:28:24;2.83;;;1.40;;
20146;SDS011;10234;50.856;15.716;2022-12-29T12:30:59;1.92;;;1.42;;
20146;SDS011;10234;50.856;15.716;2022-12-29T12:33:31;2.78;;;1.88;;
20146;SDS011;10234;50.856;15.716;2022-12-29T12:36:07;1.88;;;1.55;;
20146;SDS011;10234;50.856;15.716;2022-12-29T12:38:49;1.63;;;1.30;;
20146;SDS011;10234;50.856;15.716;2022-12-29T12:41:22;1.73;;;1.40;;
20146;SDS011;10234;50.856;15.716;2022-12-29T12:43:56;1.80;;;1.42;;
20146;SDS011;10234;50.856;15.716;2022-12-29T12:49:37;2.60;;;1.55;;
20146;SDS011;10234;50.856;15.716;2022-12-29T12:52:25;1.40;;;1.30;;
20146;SDS011;10234;50.856;15.716;2022-12-29T12:55:18;2.97;;;1.70;;
20146;SDS011;10234;50.856;15.716;2022-12-29T12:57:57;2.70;;;1.80;;
20146;SDS011;10234;50.856;15.716;2022-12-29T13:00:31;2.60;;;1.65;;
20146;SDS011;10234;50.856;15.716;2022-12-29T13:03:09;5.10;;;1.90;;
20146;SDS011;10234;50.856;15.716;2022-12-29T13:05:49;3.30;;;2.00;;
20146;SDS011;10234;50.856;15.716;2022-12-29T13:08:43;1.95;;;1.55;;
20146;SDS011;10234;50.856;15.716;2022-12-29T13:11:25;3.38;;;1.70;;
20146;SDS011;10234;50.856;15.716;2022-12-29T13:14:02;2.17;;;1.92;;
20146;SDS011;10234;50.856;15.716;2022-12-29T13:16:47;2.97;;;2.38;;
20146;SDS011;10234;50.856;15.716;2022-12-29T13:19:26;2.40;;;2.15;;
20146;SDS011;10234;50.856;15.716;2022-12-29T13:22:01;3.50;;;2.42;;
20146;SDS011;10234;50.856;15.716;2022-12-29T13:24:36;3.35;;;2.10;;
20146;SDS011;10234;50.856;15.716;2022-12-29T13:27:16;3.17;;;2.35;;
20146;SDS011;10234;50.856;15.716;2022-12-29T13:29:50;6.55;;;3.20;;
20146;SDS011;10234;50.856;15.716;2022-12-29T13:32:30;3.45;;;2.20;;
20146;SDS011;10234;50.856;15.716;2022-12-29T13:35:07;4.03;;;2.50;;
20146;SDS011;10234;50.856;15.716;2022-12-29T13:37:46;4.10;;;3.20;;
20146;SDS011;10234;50.856;15.716;2022-12-29T13:40:18;7.03;;;3.65;;
20146;SDS011;10234;50.856;15.716;2022-12-29T13:42:50;6.05;;;2.17;;
20146;SDS011;10234;50.856;15.716;2022-12-29T13:45:19;2.80;;;2.53;;
20146;SDS011;10234;50.856;15.716;2022-12-29T13:47:49;3.95;;;2.20;;
20146;SDS011;10234;50.856;15.716;2022-12-29T13:50:21;3.65;;;2.60;;
20146;SDS011;10234;50.856;15.716;2022-12-29T13:52:53;3.65;;;2.58;;
20146;SDS011;10234;50.856;15.716;2022-12-29T13:55:29;5.03;;;2.20;;
20146;SDS011;10234;50.856;15.716;2022-12-29T13:58:03;2.50;;;2.28;;
20146;SDS011;10234;50.856;15.716;2022-12-29T14:00:42;5.25;;;3.33;;
20146;SDS011;10234;50.856;15.716;2022-12-29T14:03:20;4.35;;;2.85;;
20146;SDS011;10234;50.856;15.716;2022-12-29T14:06:03;5.05;;;3.15;;
20146;SDS011;10234;50.856;15.716;2022-12-29T14:08:38;4.68;;;3.28;;
20146;SDS011;10234;50.856;15.716;2022-12-29T14:11:06;5.05;;;3.55;;
20146;SDS011;10234;50.856;15.716;2022-12-29T14:13:38;5.82;;;3.85;;
20146;SDS011;10234;50.856;15.716;2022-12-29T14:16:24;8.93;;;4.45;;
20146;SDS011;10234;50.856;15.716;2022-12-29T14:18:54;2.65;;;2.45;;
20146;SDS011;10234;50.856;15.716;2022-12-29T14:21:23;6.25;;;3.15;;
20146;SDS011;10234;50.856;15.716;2022-12-29T14:23:57;4.57;;;2.22;;
20146;SDS011;10234;50.856;15.716;2022-12-29T14:26:42;3.08;;;2.40;;
20146;SDS011;10234;50.856;15.716;2022-12-29T14:29:22;6.10;;;3.35;;
20146;SDS011;10234;50.856;15.716;2022-12-29T14:38:06;6.03;;;3.53;;
20146;SDS011;10234;50.856;15.716;2022-12-29T14:40:33;6.88;;;3.55;;
20146;SDS011;10234;50.856;15.716;2022-12-29T14:43:01;4.28;;;2.83;;
20146;SDS011;10234;50.856;15.716;2022-12-29T14:45:29;3.38;;;2.58;;
20146;SDS011;10234;50.856;15.716;2022-12-29T14:48:02;3.28;;;2.88;;
20146;SDS011;10234;50.856;15.716;2022-12-29T14:50:59;4.93;;;2.90;;
20146;SDS011;10234;50.856;15.716;2022-12-29T14:53:41;3.70;;;3.13;;
20146;SDS011;10234;50.856;15.716;2022-12-29T14:56:10;5.47;;;3.00;;
20146;SDS011;10234;50.856;15.716;2022-12-29T14:58:41;4.43;;;2.25;;
20146;SDS011;10234;50.856;15.716;2022-12-29T15:01:19;3.58;;;2.65;;
20146;SDS011;10234;50.856;15.716;2022-12-29T15:03:50;5.88;;;3.80;;
20146;SDS011;10234;50.856;15.716;2022-12-29T15:06:19;5.28;;;3.67;;
20146;SDS011;10234;50.856;15.716;2022-12-29T15:08:50;4.22;;;2.95;;
20146;SDS011;10234;50.856;15.716;2022-12-29T15:11:22;6.53;;;4.00;;
20146;SDS011;10234;50.856;15.716;2022-12-29T15:13:50;5.00;;;3.63;;
20146;SDS011;10234;50.856;15.716;2022-12-29T15:16:22;5.40;;;3.97;;